createdAt,value
2019-04-16T00:02:13.054Z,1.70
2019-04-16T00:05:01.211Z,1.20
2019-04-16T00:08:03.074Z,1.57
2019-04-16T00:11:07.874Z,1.50
2019-04-16T00:14:04.508Z,2.17
2019-04-16T00:16:36.880Z,1.73
2019-04-16T00:19:07.639Z,1.40
2019-04-16T00:21:59.956Z,2.70
2019-04-16T00:24:36.187Z,1.40
2019-04-16T00:27:07.160Z,1.50
2019-04-16T00:29:39.581Z,1.50
2019-04-16T00:32:19.032Z,2.17
2019-04-16T00:34:49.618Z,1.40
2019-04-16T00:37:22.513Z,1.40
2019-04-16T00:39:56.053Z,1.47
2019-04-16T00:42:25.502Z,2.00
2019-04-16T00:44:56.471Z,1.27
2019-04-16T00:47:27.694Z,1.77
2019-04-16T00:49:59.511Z,1.87
2019-04-16T00:52:30.362Z,3.23
2019-04-16T00:55:01.036Z,1.30
2019-04-16T00:57:31.773Z,3.07
2019-04-16T01:00:02.477Z,1.50
2019-04-16T01:02:33.320Z,1.60
2019-04-16T01:05:04.173Z,1.47
2019-04-16T01:07:35.096Z,2.43
2019-04-16T01:10:06.055Z,1.83
2019-04-16T01:12:37.326Z,1.23
2019-04-16T01:15:08.438Z,1.47
2019-04-16T01:17:40.274Z,1.40
2019-04-16T01:20:12.873Z,1.50
2019-04-16T01:22:46.581Z,1.53
2019-04-16T01:25:15.984Z,1.53
2019-04-16T01:27:51.738Z,1.53
2019-04-16T01:30:36.613Z,1.97
2019-04-16T01:33:29.286Z,1.40
2019-04-16T01:36:09.725Z,1.67
2019-04-16T01:38:51.040Z,1.40
2019-04-16T01:41:22.661Z,1.50
2019-04-16T01:43:54.314Z,2.23
2019-04-16T01:46:26.103Z,2.07
2019-04-16T01:48:56.914Z,1.50
2019-04-16T01:51:27.539Z,1.93
2019-04-16T01:53:58.314Z,1.80
2019-04-16T01:56:29.279Z,1.47
2019-04-16T01:59:04.548Z,1.83
2019-04-16T02:01:33.608Z,1.60
2019-04-16T02:04:05.627Z,1.40
2019-04-16T02:06:36.526Z,1.50
2019-04-16T02:09:21.269Z,1.73
2019-04-16T02:11:41.415Z,1.27
2019-04-16T02:14:14.496Z,1.93
2019-04-16T02:16:44.854Z,1.43
2019-04-16T02:19:15.582Z,1.50
2019-04-16T02:21:46.694Z,1.90
2019-04-16T02:24:18.803Z,1.60
2019-04-16T02:26:54.627Z,1.70
2019-04-16T02:29:23.098Z,1.60
2019-04-16T02:31:54.284Z,1.50
2019-04-16T02:34:25.507Z,2.17
2019-04-16T02:37:00.479Z,1.70
2019-04-16T02:39:47.251Z,2.60
2019-04-16T02:42:01.061Z,1.87
2019-04-16T02:44:31.930Z,1.50
2019-04-16T02:47:06.369Z,1.63
2019-04-16T02:49:35.740Z,1.57
2019-04-16T02:52:22.332Z,2.47
2019-04-16T02:55:08.057Z,1.60
2019-04-16T02:57:52.354Z,1.83
2019-04-16T03:00:34.926Z,1.73
2019-04-16T03:03:10.662Z,1.63
2019-04-16T03:05:44.230Z,1.70
2019-04-16T03:08:15.178Z,2.53
2019-04-16T03:10:45.859Z,1.53
2019-04-16T03:13:17.154Z,2.37
2019-04-16T03:16:10.285Z,1.77
2019-04-16T03:18:48.419Z,3.70
2019-04-16T03:21:20.462Z,1.73
2019-04-16T03:23:51.463Z,1.90
2019-04-16T03:26:22.186Z,1.77
2019-04-16T03:28:55.704Z,2.37
2019-04-16T03:31:25.462Z,2.83
2019-04-16T03:33:57.575Z,1.60
2019-04-16T03:36:29.495Z,2.10
2019-04-16T03:39:05.577Z,2.43
2019-04-16T03:41:36.350Z,1.70
2019-04-16T03:44:07.033Z,2.27
2019-04-16T03:46:40.070Z,1.77
2019-04-16T03:49:10.362Z,2.17
2019-04-16T03:51:40.962Z,2.10
2019-04-16T03:54:11.966Z,2.37
2019-04-16T03:56:42.910Z,1.87
2019-04-16T03:59:14.022Z,2.03
2019-04-16T04:01:46.059Z,1.80
2019-04-16T04:04:17.678Z,1.83
2019-04-16T04:06:48.378Z,1.97
2019-04-16T04:09:22.181Z,2.30
2019-04-16T04:11:51.662Z,2.20
2019-04-16T04:14:23.546Z,2.03
2019-04-16T04:16:54.488Z,1.90
2019-04-16T04:19:25.067Z,1.93
2019-04-16T04:21:55.992Z,2.43
2019-04-16T04:24:28.508Z,1.70
2019-04-16T04:27:01.511Z,2.63
2019-04-16T04:29:32.199Z,1.80
2019-04-16T04:32:04.148Z,3.20
2019-04-16T04:34:35.039Z,1.97
2019-04-16T04:37:05.662Z,2.70
2019-04-16T04:39:36.611Z,2.13
2019-04-16T04:42:07.524Z,3.57
2019-04-16T04:44:38.715Z,5.20
2019-04-16T04:47:09.218Z,2.73
2019-04-16T04:49:40.282Z,1.70
2019-04-16T04:52:13.591Z,2.77
2019-04-16T04:54:43.364Z,6.20
2019-04-16T04:57:14.051Z,4.67
2019-04-16T04:59:44.650Z,2.77
2019-04-16T05:02:16.374Z,2.80
2019-04-16T05:04:54.428Z,3.67
2019-04-16T05:07:25.666Z,4.67
2019-04-16T05:09:57.495Z,4.07
2019-04-16T05:12:29.331Z,4.40
2019-04-16T05:15:03.823Z,6.33
2019-04-16T05:17:35.502Z,3.40
2019-04-16T05:20:07.812Z,2.40
2019-04-16T05:22:38.431Z,3.47
2019-04-16T05:25:09.063Z,5.33
2019-04-16T05:27:41.962Z,3.17
2019-04-16T05:30:12.888Z,2.67
2019-04-16T05:32:44.168Z,4.47
2019-04-16T05:35:14.806Z,7.70
2019-04-16T05:37:48.589Z,3.23
2019-04-16T05:40:18.004Z,5.13
2019-04-16T05:42:48.788Z,5.63
2019-04-16T05:45:19.635Z,5.33
2019-04-16T05:47:50.738Z,3.27
2019-04-16T05:50:21.873Z,2.50
2019-04-16T05:52:52.474Z,7.67
2019-04-16T05:55:35.802Z,4.87
2019-04-16T05:58:06.603Z,3.47
2019-04-16T06:00:56.127Z,2.47
2019-04-16T06:03:26.854Z,3.07
2019-04-16T06:05:59.220Z,2.40
2019-04-16T06:08:29.791Z,3.07
2019-04-16T06:11:00.513Z,4.93
2019-04-16T06:13:56.178Z,3.95
2019-04-16T06:16:56.938Z,3.90
2019-04-16T06:19:53.126Z,3.57
2019-04-16T06:22:30.230Z,3.70
2019-04-16T06:25:18.281Z,5.60
2019-04-16T06:28:06.542Z,4.23
2019-04-16T06:31:14.762Z,2.60
2019-04-16T06:33:54.459Z,3.17
2019-04-16T06:36:49.872Z,2.33
2019-04-16T06:39:26.555Z,2.33
2019-04-16T06:42:08.255Z,1.93
2019-04-16T06:44:46.974Z,4.67
2019-04-16T06:47:26.741Z,2.77
2019-04-16T06:50:29.588Z,4.53
2019-04-16T06:53:04.846Z,3.87
2019-04-16T06:55:44.574Z,1.97
2019-04-16T06:58:18.454Z,3.40
2019-04-16T07:01:17.192Z,2.50
2019-04-16T07:03:59.591Z,2.80
2019-04-16T07:07:01.935Z,2.77
2019-04-16T07:09:41.863Z,2.60
2019-04-16T07:12:29.616Z,4.80
2019-04-16T07:15:00.003Z,2.80
2019-04-16T07:17:33.751Z,3.63
2019-04-16T07:20:04.661Z,2.07
2019-04-16T07:22:34.674Z,2.43
2019-04-16T07:25:05.899Z,3.50
2019-04-16T07:27:57.824Z,3.47
2019-04-16T07:30:31.250Z,2.00
2019-04-16T07:33:24.227Z,4.50
2019-04-16T07:36:14.146Z,1.70
2019-04-16T07:39:08.442Z,3.57
2019-04-16T07:42:08.614Z,2.90
2019-04-16T07:44:59.687Z,3.00
2019-04-16T07:47:48.340Z,1.40
2019-04-16T07:50:54.670Z,3.63
2019-04-16T07:53:36.686Z,3.87
2019-04-16T07:56:12.556Z,2.13
2019-04-16T07:58:42.970Z,4.17
2019-04-16T08:01:16.282Z,5.23
2019-04-16T08:03:45.803Z,3.13
2019-04-16T08:06:16.609Z,2.87
2019-04-16T08:08:47.669Z,3.57
2019-04-16T08:11:18.547Z,1.93
2019-04-16T08:13:49.239Z,2.20
2019-04-16T08:16:19.981Z,2.00
2019-04-16T08:18:51.349Z,1.98
2019-04-16T08:21:22.944Z,4.07
2019-04-16T08:24:03.771Z,2.87
2019-04-16T08:26:34.698Z,5.33
2019-04-16T08:29:05.749Z,2.73
2019-04-16T08:31:40.869Z,3.03
2019-04-16T08:34:12.143Z,3.43
2019-04-16T08:36:43.431Z,4.20
2019-04-16T08:39:15.075Z,3.33
2019-04-16T08:41:45.838Z,1.93
2019-04-16T08:44:16.442Z,1.60
2019-04-16T08:46:47.272Z,1.50
2019-04-16T08:49:22.062Z,2.37
2019-04-16T08:51:50.419Z,1.73
2019-04-16T08:54:21.051Z,1.57
2019-04-16T08:56:51.550Z,1.70
2019-04-16T08:59:22.986Z,2.53
2019-04-16T09:01:54.506Z,2.03
2019-04-16T09:04:26.142Z,1.90
2019-04-16T09:07:09.627Z,2.80
2019-04-16T09:09:47.614Z,3.47
2019-04-16T09:12:19.228Z,1.87
2019-04-16T09:14:56.012Z,3.17
2019-04-16T09:17:44.691Z,1.67
2019-04-16T09:20:23.779Z,1.80
2019-04-16T09:22:54.744Z,2.17
2019-04-16T09:25:39.294Z,2.57
2019-04-16T09:28:25.440Z,3.27
2019-04-16T09:31:14.184Z,2.63
2019-04-16T09:33:57.633Z,2.00
2019-04-16T09:36:51.268Z,2.47
2019-04-16T09:39:32.698Z,2.50
2019-04-16T09:42:03.598Z,4.37
2019-04-16T09:44:35.522Z,2.37
2019-04-16T09:47:06.452Z,2.47
2019-04-16T09:49:37.675Z,2.33
2019-04-16T09:52:09.297Z,2.30
2019-04-16T09:54:41.562Z,3.30
2019-04-16T09:57:12.535Z,2.80
2019-04-16T09:59:51.263Z,2.87
2019-04-16T10:02:25.078Z,3.27
2019-04-16T10:04:55.580Z,3.77
2019-04-16T10:07:26.075Z,2.92
2019-04-16T10:09:56.565Z,2.77
2019-04-16T10:12:26.987Z,2.72
2019-04-16T10:14:57.483Z,3.27
2019-04-16T10:17:28.423Z,3.15
2019-04-16T10:19:59.035Z,2.80
2019-04-16T10:22:29.810Z,3.05
2019-04-16T10:25:14.128Z,2.62
2019-04-16T10:27:51.454Z,3.33
2019-04-16T10:30:25.446Z,7.67
2019-04-16T10:32:56.065Z,3.30
2019-04-16T10:35:26.807Z,3.65
2019-04-16T10:38:00.031Z,3.75
2019-04-16T10:40:42.600Z,4.08
2019-04-16T10:43:43.822Z,3.75
2019-04-16T10:46:34.452Z,3.80
2019-04-16T10:49:19.446Z,3.50
2019-04-16T10:52:09.298Z,3.98
2019-04-16T10:55:20.336Z,3.80
2019-04-16T10:58:19.109Z,4.20
2019-04-16T11:00:58.035Z,4.10
2019-04-16T11:03:37.822Z,3.80
2019-04-16T11:06:27.551Z,5.58
2019-04-16T11:08:58.592Z,3.70
2019-04-16T11:11:29.174Z,4.22
2019-04-16T11:14:00.657Z,3.62
2019-04-16T11:16:51.682Z,4.35
2019-04-16T11:19:22.502Z,4.28
2019-04-16T11:21:53.171Z,3.60
2019-04-16T11:24:23.697Z,3.70
2019-04-16T11:26:54.677Z,4.08
2019-04-16T11:29:25.371Z,4.17
2019-04-16T11:31:56.305Z,3.65
2019-04-16T11:34:26.713Z,4.25
2019-04-16T11:36:58.553Z,3.83
2019-04-16T11:39:29.278Z,4.22
2019-04-16T11:42:00.130Z,4.70
2019-04-16T11:44:30.727Z,3.85
2019-04-16T11:47:01.312Z,3.33
2019-04-16T11:49:33.289Z,3.15
2019-04-16T11:52:04.564Z,2.98
2019-04-16T11:54:35.326Z,3.35
2019-04-16T11:57:06.477Z,2.90
2019-04-16T11:59:38.311Z,3.15
2019-04-16T12:02:22.702Z,2.62
2019-04-16T12:05:15.320Z,2.60
2019-04-16T12:08:06.117Z,3.60
2019-04-16T12:10:58.956Z,3.15
2019-04-16T12:14:00.668Z,2.50
2019-04-16T12:16:47.917Z,2.70
2019-04-16T12:19:55.743Z,2.70
2019-04-16T12:22:49.251Z,4.00
2019-04-16T12:25:38.569Z,2.33
2019-04-16T12:28:28.380Z,2.13
2019-04-16T12:31:21.120Z,2.13
2019-04-16T12:34:13.753Z,3.37
2019-04-16T12:37:09.354Z,2.30
2019-04-16T12:39:58.829Z,2.17
2019-04-16T12:42:42.237Z,3.00
2019-04-16T12:45:43.609Z,1.87
2019-04-16T12:48:38.850Z,5.63
2019-04-16T12:51:22.450Z,2.37
2019-04-16T12:54:18.140Z,1.80
2019-04-16T12:57:22.934Z,4.50
2019-04-16T13:00:11.136Z,2.00
2019-04-16T13:02:59.164Z,4.10
2019-04-16T13:05:33.848Z,2.27
2019-04-16T13:08:30.498Z,3.10
2019-04-16T13:11:35.216Z,2.30
2019-04-16T13:14:24.727Z,2.70
2019-04-16T13:17:29.568Z,3.77
2019-04-16T13:20:29.176Z,4.60
2019-04-16T13:22:58.842Z,1.90
2019-04-16T13:25:43.365Z,3.20
2019-04-16T13:28:14.204Z,5.10
2019-04-16T13:30:45.177Z,2.80
2019-04-16T13:33:15.829Z,2.60
2019-04-16T13:35:46.547Z,1.77
2019-04-16T13:38:22.423Z,2.23
2019-04-16T13:40:54.125Z,1.50
2019-04-16T13:43:29.307Z,3.27
2019-04-16T13:46:00.250Z,1.67
2019-04-16T13:48:53.187Z,2.90
2019-04-16T13:51:25.522Z,1.77
2019-04-16T13:54:21.388Z,1.57
2019-04-16T13:56:55.362Z,3.80
2019-04-16T13:59:44.794Z,1.40
2019-04-16T14:02:47.734Z,1.53
2019-04-16T14:05:19.233Z,2.60
2019-04-16T14:07:51.272Z,1.90
2019-04-16T14:10:21.901Z,2.20
2019-04-16T14:12:52.744Z,1.73
2019-04-16T14:15:32.278Z,1.70
2019-04-16T14:17:59.693Z,2.90
2019-04-16T14:20:30.468Z,2.20
2019-04-16T14:23:02.562Z,2.50
2019-04-16T14:25:33.199Z,2.17
2019-04-16T14:28:04.269Z,2.10
2019-04-16T14:30:39.544Z,2.80
2019-04-16T14:33:14.031Z,2.77
2019-04-16T14:35:44.618Z,1.60
2019-04-16T14:38:18.291Z,3.53
2019-04-16T14:40:48.999Z,2.10
2019-04-16T14:43:23.319Z,2.27
2019-04-16T14:45:59.211Z,2.03
2019-04-16T14:48:27.278Z,5.50
2019-04-16T14:50:58.372Z,3.13
2019-04-16T14:53:38.389Z,3.57
2019-04-16T14:56:27.510Z,1.90
2019-04-16T14:59:30.266Z,1.90
2019-04-16T15:01:59.039Z,1.70
2019-04-16T15:04:34.446Z,3.47
2019-04-16T15:07:22.574Z,4.13
2019-04-16T15:10:11.246Z,1.53
2019-04-16T15:12:54.614Z,2.40
2019-04-16T15:15:32.880Z,1.93
2019-04-16T15:18:10.754Z,1.53
2019-04-16T15:21:03.402Z,1.80
2019-04-16T15:23:56.141Z,2.67
2019-04-16T15:26:52.295Z,2.47
2019-04-16T15:29:59.697Z,1.90
2019-04-16T15:32:48.634Z,2.90
2019-04-16T15:35:29.099Z,2.00
2019-04-16T15:38:22.035Z,1.90
2019-04-16T15:40:55.953Z,3.40
2019-04-16T15:43:54.802Z,2.23
2019-04-16T15:46:46.838Z,2.00
2019-04-16T15:49:27.563Z,1.93
2019-04-16T15:52:15.783Z,2.40
2019-04-16T15:55:11.188Z,1.83
2019-04-16T15:57:51.152Z,2.40
2019-04-16T16:00:47.405Z,1.50
2019-04-16T16:03:35.871Z,2.43
2019-04-16T16:06:16.771Z,1.93
2019-04-16T16:09:07.800Z,2.43
2019-04-16T16:11:55.171Z,5.17
2019-04-16T16:14:26.078Z,2.53
2019-04-16T16:16:56.739Z,1.93
2019-04-16T16:19:27.191Z,2.43
2019-04-16T16:21:58.278Z,2.30
2019-04-16T16:24:28.858Z,1.80
2019-04-16T16:26:59.910Z,4.93
2019-04-16T16:29:30.591Z,1.67
2019-04-16T16:32:01.133Z,2.90
2019-04-16T16:34:32.142Z,2.43
2019-04-16T16:37:02.762Z,2.97
2019-04-16T16:39:33.515Z,1.17
2019-04-16T16:42:04.607Z,2.40
2019-04-16T16:44:35.280Z,3.87
2019-04-16T16:47:40.355Z,1.73
2019-04-16T16:50:15.182Z,2.90
2019-04-16T16:52:53.643Z,1.40
2019-04-16T16:55:34.988Z,4.90
2019-04-16T16:58:24.927Z,3.03
2019-04-16T17:01:14.503Z,2.10
2019-04-16T17:04:06.445Z,1.87
2019-04-16T17:06:37.415Z,4.77
2019-04-16T17:09:09.858Z,2.00
2019-04-16T17:11:43.200Z,4.20
2019-04-16T17:14:13.167Z,1.80
2019-04-16T17:16:43.598Z,2.53
2019-04-16T17:19:14.383Z,4.73
2019-04-16T17:21:45.207Z,3.17
2019-04-16T17:24:16.022Z,4.57
2019-04-16T17:26:50.103Z,1.97
2019-04-16T17:29:21.094Z,3.77
2019-04-16T17:31:52.474Z,4.73
2019-04-16T17:34:23.366Z,2.57
2019-04-16T17:36:54.236Z,1.83
2019-04-16T17:39:42.268Z,3.00
2019-04-16T17:42:10.992Z,1.77
2019-04-16T17:44:52.327Z,3.70
2019-04-16T17:47:41.766Z,2.20
2019-04-16T17:50:31.631Z,1.80
2019-04-16T17:53:09.309Z,1.87
2019-04-16T17:55:57.555Z,2.90
2019-04-16T17:58:36.366Z,2.57
2019-04-16T18:01:29.182Z,3.57
2019-04-16T18:04:15.801Z,1.67
2019-04-16T18:07:06.114Z,2.10
2019-04-16T18:09:43.627Z,3.23
2019-04-16T18:12:32.970Z,2.57
2019-04-16T18:15:24.713Z,2.13
2019-04-16T18:18:16.933Z,2.37
2019-04-16T18:21:20.938Z,7.93
2019-04-16T18:24:10.544Z,7.23
2019-04-16T18:26:58.823Z,7.33
2019-04-16T18:29:37.738Z,6.77
2019-04-16T18:32:33.543Z,10.87
2019-04-16T18:35:20.027Z,9.73
2019-04-16T18:37:54.930Z,12.10
2019-04-16T18:40:39.725Z,20.17
2019-04-16T18:43:28.178Z,30.43
2019-04-16T18:46:29.642Z,37.70
2019-04-16T18:49:14.266Z,47.97
2019-04-16T18:51:44.911Z,36.80
2019-04-16T18:54:15.859Z,30.23
2019-04-16T18:56:46.423Z,17.53
2019-04-16T18:59:21.230Z,19.10
2019-04-16T19:01:55.166Z,13.70
2019-04-16T19:04:25.952Z,10.77
2019-04-16T19:06:56.463Z,9.23
2019-04-16T19:09:27.272Z,10.47
2019-04-16T19:11:58.660Z,14.70
2019-04-16T19:14:29.350Z,17.53
2019-04-16T19:17:00.583Z,21.77
2019-04-16T19:19:33.381Z,18.47
2019-04-16T19:22:04.311Z,12.70
2019-04-16T19:24:35.051Z,11.37
2019-04-16T19:27:05.963Z,9.27
2019-04-16T19:29:36.704Z,8.47
2019-04-16T19:32:07.334Z,4.97
2019-04-16T19:34:41.313Z,4.20
2019-04-16T19:37:12.882Z,8.67
2019-04-16T19:39:46.835Z,6.07
2019-04-16T19:42:16.407Z,9.50
2019-04-16T19:44:47.258Z,6.53
2019-04-16T19:47:17.890Z,5.27
2019-04-16T19:49:48.410Z,8.50
2019-04-16T19:52:18.915Z,4.10
2019-04-16T19:54:49.487Z,4.37
2019-04-16T19:57:20.162Z,3.73
2019-04-16T19:59:52.258Z,4.53
2019-04-16T20:02:23.019Z,3.90
2019-04-16T20:04:54.187Z,2.90
2019-04-16T20:07:25.406Z,5.93
2019-04-16T20:09:57.071Z,6.60
2019-04-16T20:12:28.802Z,9.80
2019-04-16T20:14:59.759Z,4.07
2019-04-16T20:17:30.866Z,9.13
2019-04-16T20:20:01.573Z,10.23
2019-04-16T20:22:33.191Z,10.13
2019-04-16T20:25:03.972Z,12.70
2019-04-16T20:27:36.262Z,15.27
2019-04-16T20:30:08.819Z,12.83
2019-04-16T20:32:42.290Z,11.23
2019-04-16T20:35:17.880Z,12.27
2019-04-16T20:37:44.643Z,4.67
2019-04-16T20:40:17.740Z,5.73
2019-04-16T20:42:47.924Z,5.23
2019-04-16T20:45:18.751Z,5.07
2019-04-16T20:47:50.146Z,6.83
2019-04-16T20:50:21.512Z,5.30
2019-04-16T20:52:52.215Z,3.00
2019-04-16T20:55:23.016Z,5.30
2019-04-16T20:57:55.252Z,4.40
2019-04-16T21:00:30.427Z,6.50
2019-04-16T21:03:03.124Z,5.70
2019-04-16T21:05:35.747Z,3.87
2019-04-16T21:08:05.934Z,6.83
2019-04-16T21:10:36.982Z,4.13
2019-04-16T21:13:07.997Z,3.07
2019-04-16T21:15:38.894Z,5.80
2019-04-16T21:18:11.954Z,4.77
2019-04-16T21:20:42.215Z,6.23
2019-04-16T21:23:12.921Z,2.67
2019-04-16T21:25:45.905Z,2.33
2019-04-16T21:28:32.330Z,1.90
2019-04-16T21:31:12.974Z,2.20
2019-04-16T21:33:56.891Z,8.77
2019-04-16T21:36:37.856Z,9.40
2019-04-16T21:39:17.203Z,5.23
2019-04-16T21:41:44.266Z,4.87
2019-04-16T21:44:15.234Z,3.63
2019-04-16T21:46:46.078Z,3.63
2019-04-16T21:49:16.925Z,5.77
2019-04-16T21:52:05.568Z,3.53
2019-04-16T21:54:36.146Z,3.33
2019-04-16T21:57:09.180Z,5.53
2019-04-16T21:59:39.827Z,2.37
2019-04-16T22:02:18.040Z,2.33
2019-04-16T22:04:48.502Z,2.10
2019-04-16T22:07:24.329Z,1.63
2019-04-16T22:09:51.614Z,1.93
2019-04-16T22:12:22.441Z,1.87
2019-04-16T22:14:54.279Z,1.90
2019-04-16T22:17:25.178Z,2.13
2019-04-16T22:20:01.569Z,1.77
2019-04-16T22:22:28.316Z,2.33
2019-04-16T22:24:59.056Z,3.00
2019-04-16T22:27:29.926Z,1.50
2019-04-16T22:30:00.751Z,3.27
2019-04-16T22:32:31.630Z,2.93
2019-04-16T22:35:02.686Z,3.90
2019-04-16T22:37:33.589Z,2.10
2019-04-16T22:40:22.551Z,3.47
2019-04-16T22:43:20.808Z,1.93
2019-04-16T22:45:56.734Z,3.00
2019-04-16T22:48:27.574Z,3.33
2019-04-16T22:50:58.407Z,2.20
2019-04-16T22:53:29.254Z,2.20
2019-04-16T22:56:00.966Z,1.70
2019-04-16T22:58:47.916Z,2.00
2019-04-16T23:01:20.006Z,2.10
2019-04-16T23:03:53.419Z,2.43
2019-04-16T23:06:24.854Z,1.70
2019-04-16T23:08:55.770Z,2.57
2019-04-16T23:11:26.627Z,2.10
2019-04-16T23:13:57.446Z,2.20
2019-04-16T23:16:28.607Z,1.70
2019-04-16T23:18:59.433Z,2.00
2019-04-16T23:21:30.254Z,2.80
2019-04-16T23:24:01.228Z,2.73
2019-04-16T23:26:33.205Z,3.20
2019-04-16T23:29:04.596Z,1.93
2019-04-16T23:31:35.446Z,1.93
2019-04-16T23:34:07.162Z,1.70
2019-04-16T23:36:38.342Z,1.80
2019-04-16T23:39:09.004Z,3.80
2019-04-16T23:41:39.951Z,4.00
2019-04-16T23:44:28.450Z,3.93
2019-04-16T23:47:24.403Z,2.37
2019-04-16T23:50:14.182Z,2.50
2019-04-16T23:52:51.646Z,2.17
2019-04-16T23:55:48.784Z,1.97
2019-04-16T23:58:31.362Z,1.30
